Time;durP1;ratioP1;P1;durP2;ratioP2;P2;SDS_P1;SDS_P2;PMS_P1;PMS_P2;Temp;Humidity;BMP_temperature;BMP_pressure;BME280_temperature;BME280_humidity;BME280_pressure;Samples;Min_cycle;Max_cycle;Signal;HPM_P1;HPM_P2
2022/03/12 00:01:05;;;;;;;7.37;5.77;;;4.70;86.90;;;;;;4935464;29;20506;-62
2022/03/12 00:03:34;;;;;;;10.40;6.13;;;4.70;86.50;;;;;;4935326;29;20258;-62
2022/03/12 00:06:03;;;;;;;9.37;5.83;;;4.70;87.10;;;;;;4935466;29;21003;-62
2022/03/12 00:08:42;;;;;;;9.60;6.07;;;4.60;87.50;;;;;;4934869;29;20482;-62
2022/03/12 00:11:12;;;;;;;8.33;5.63;;;4.60;87.20;;;;;;4935431;29;20244;-62
2022/03/12 00:13:40;;;;;;;6.77;5.20;;;4.60;87.60;;;;;;4923117;29;20238;-62
2022/03/12 00:16:12;;;;;;;8.03;5.70;;;4.60;88.40;;;;;;4916370;29;20909;-62
2022/03/12 00:18:42;;;;;;;7.70;5.70;;;4.50;87.40;;;;;;4910835;29;20992;-63
2022/03/12 00:21:13;;;;;;;8.73;6.07;;;4.60;87.40;;;;;;4916074;29;20234;-62
2022/03/12 00:23:47;;;;;;;8.17;5.50;;;4.50;87.80;;;;;;4934408;29;20484;-62
2022/03/12 00:26:16;;;;;;;7.80;6.10;;;4.50;88.30;;;;;;4934958;29;20239;-62
2022/03/12 00:28:45;;;;;;;8.20;5.50;;;4.50;87.70;;;;;;4935080;29;20236;-62
2022/03/12 00:31:14;;;;;;;10.63;6.30;;;4.50;87.40;;;;;;4934892;29;20315;-62
2022/03/12 00:33:42;;;;;;;7.43;5.73;;;4.40;88.00;;;;;;4922320;29;20236;-62
2022/03/12 00:36:11;;;;;;;8.13;5.77;;;4.50;87.50;;;;;;4915879;29;20331;-62
2022/03/12 00:38:40;;;;;;;8.57;5.67;;;4.40;87.80;;;;;;4915863;29;20837;-62
2022/03/12 00:41:11;;;;;;;7.63;5.73;;;4.40;88.10;;;;;;4916007;29;20543;-62
2022/03/12 00:43:39;;;;;;;8.93;5.50;;;4.40;88.40;;;;;;4915573;29;20245;-62
2022/03/12 00:46:07;;;;;;;9.37;5.33;;;4.40;87.40;;;;;;4915286;29;20702;-62
2022/03/12 00:48:36;;;;;;;9.37;5.93;;;4.40;87.20;;;;;;4915304;29;20406;-62
2022/03/12 00:51:07;;;;;;;8.67;5.97;;;4.40;87.50;;;;;;4915568;29;20600;-62
2022/03/12 00:53:35;;;;;;;7.57;5.17;;;4.40;87.20;;;;;;4915547;29;20228;-62
2022/03/12 00:56:05;;;;;;;8.17;5.80;;;4.30;87.20;;;;;;4915694;29;20503;-62
2022/03/12 00:58:35;;;;;;;7.53;5.30;;;4.30;87.70;;;;;;4926645;29;21050;-62
2022/03/12 01:01:04;;;;;;;7.10;4.87;;;4.30;87.70;;;;;;4934448;29;20270;-62
2022/03/12 01:03:33;;;;;;;8.77;5.70;;;4.30;87.20;;;;;;4922758;29;20232;-62
2022/03/12 01:06:03;;;;;;;8.57;5.53;;;4.30;87.70;;;;;;4915335;29;20236;-62
2022/03/12 01:08:32;;;;;;;8.30;6.03;;;4.20;87.00;;;;;;4915029;29;20907;-62
2022/03/12 01:11:04;;;;;;;6.60;5.50;;;4.20;87.30;;;;;;4915405;29;20723;-62
2022/03/12 01:13:34;;;;;;;8.07;6.13;;;4.30;88.10;;;;;;4915292;29;20323;-62
2022/03/12 01:16:02;;;;;;;8.63;5.30;;;4.20;87.20;;;;;;4915314;29;20597;-63
2022/03/12 01:18:30;;;;;;;7.80;5.23;;;4.20;89.50;;;;;;4915409;29;20239;-62
2022/03/12 01:21:08;;;;;;;7.50;5.67;;;4.20;88.20;;;;;;4915651;29;20648;-62
2022/03/12 01:23:38;;;;;;;8.20;5.60;;;4.10;88.10;;;;;;4914774;29;20543;-63
2022/03/12 01:26:06;;;;;;;7.60;5.40;;;4.10;87.90;;;;;;4915164;29;21011;-62
2022/03/12 01:28:36;;;;;;;6.17;5.10;;;4.10;87.90;;;;;;4915023;29;20472;-63
2022/03/12 01:31:05;;;;;;;8.37;5.40;;;4.10;87.90;;;;;;4915116;29;20468;-62
2022/03/12 01:33:34;;;;;;;9.77;5.23;;;4.10;87.20;;;;;;4914909;29;20610;-62
2022/03/12 01:36:02;;;;;;;6.30;4.53;;;4.10;87.40;;;;;;4915086;29;20465;-62
2022/03/12 01:38:33;;;;;;;8.53;5.50;;;4.10;86.90;;;;;;4914916;29;20539;-62
2022/03/12 01:41:04;;;;;;;9.97;5.43;;;4.10;86.90;;;;;;4914924;29;20507;-62
2022/03/12 01:43:32;;;;;;;7.20;5.30;;;4.10;87.30;;;;;;4926034;29;21034;-62
2022/03/12 01:46:02;;;;;;;7.97;5.13;;;4.10;87.00;;;;;;4933895;29;20471;-62
2022/03/12 01:48:31;;;;;;;9.97;5.33;;;4.00;87.20;;;;;;4914586;29;20543;-63
2022/03/12 01:50:59;;;;;;;7.87;4.97;;;4.00;87.10;;;;;;4915083;29;20471;-63
2022/03/12 01:53:28;;;;;;;8.40;5.23;;;4.00;87.80;;;;;;4914797;29;20523;-62
2022/03/12 01:55:56;;;;;;;8.13;5.70;;;4.00;87.80;;;;;;4914953;29;20830;-62
2022/03/12 01:58:26;;;;;;;6.67;5.30;;;3.90;88.30;;;;;;4924222;29;20496;-62
2022/03/12 02:00:54;;;;;;;7.87;5.70;;;3.90;87.70;;;;;;4933508;29;20342;-62
2022/03/12 02:03:26;;;;;;;8.77;5.50;;;3.90;87.40;;;;;;4932321;29;20481;-62
2022/03/12 02:05:55;;;;;;;7.47;5.10;;;3.80;87.90;;;;;;4933540;29;20494;-62
2022/03/12 02:08:23;;;;;;;9.83;5.80;;;3.90;88.00;;;;;;4923253;29;20495;-62
2022/03/12 02:10:59;;;;;;;7.17;5.10;;;3.80;88.10;;;;;;4910145;29;20535;-62
2022/03/12 02:13:29;;;;;;;8.50;5.33;;;3.80;88.20;;;;;;4923857;29;20538;-62
2022/03/12 02:16:07;;;;;;;10.50;5.40;;;3.80;87.70;;;;;;4933729;29;20486;-62
2022/03/12 02:18:38;;;;;;;9.07;5.17;;;3.70;87.90;;;;;;4933000;29;20485;-62
2022/03/12 02:21:07;;;;;;;6.87;5.47;;;3.70;89.80;;;;;;4933395;29;20487;-62
2022/03/12 02:23:50;;;;;;;7.40;5.53;;;3.70;88.40;;;;;;4915395;29;20478;-62
2022/03/12 02:26:18;;;;;;;7.97;5.40;;;3.70;88.50;;;;;;4914395;29;20495;-62
2022/03/12 02:28:46;;;;;;;9.03;5.17;;;3.70;88.40;;;;;;4927214;29;20843;-63
2022/03/12 02:31:15;;;;;;;9.23;5.50;;;3.70;88.40;;;;;;4933365;29;21019;-62
2022/03/12 02:33:44;;;;;;;8.20;5.60;;;3.60;88.80;;;;;;4920547;29;20539;-62
2022/03/12 02:36:16;;;;;;;9.17;5.80;;;3.60;88.80;;;;;;4914330;29;20539;-62
2022/03/12 02:38:50;;;;;;;9.87;5.43;;;3.60;88.70;;;;;;4914423;29;20476;-62
2022/03/12 02:41:23;;;;;;;7.00;5.00;;;3.50;88.90;;;;;;4913730;29;20579;-62
2022/03/12 02:43:51;;;;;;;8.87;5.33;;;3.50;88.80;;;;;;4914631;29;20460;-62
2022/03/12 02:46:20;;;;;;;10.50;5.80;;;3.50;89.70;;;;;;4914326;29;20918;-62
2022/03/12 02:48:53;;;;;;;8.53;5.17;;;3.50;88.90;;;;;;4914107;29;20857;-62
2022/03/12 02:51:22;;;;;;;7.37;5.07;;;3.60;88.20;;;;;;4914372;29;20966;-62
2022/03/12 02:53:54;;;;;;;7.83;5.73;;;3.50;88.30;;;;;;4914048;29;20461;-62
2022/03/12 02:56:22;;;;;;;7.00;4.90;;;3.50;88.40;;;;;;4914264;29;20551;-62
2022/03/12 02:58:50;;;;;;;9.17;5.57;;;3.40;88.50;;;;;;4927856;29;20467;-62
2022/03/12 03:01:19;;;;;;;7.83;4.90;;;3.40;88.40;;;;;;4933008;29;20490;-62
2022/03/12 03:03:48;;;;;;;9.97;5.20;;;3.50;88.30;;;;;;4919606;29;20471;-62
2022/03/12 03:06:16;;;;;;;8.97;5.07;;;3.40;88.20;;;;;;4914067;29;20573;-62
2022/03/12 03:08:44;;;;;;;10.17;5.50;;;3.40;88.60;;;;;;4914119;29;20989;-62
2022/03/12 03:11:18;;;;;;;7.47;5.00;;;3.40;88.80;;;;;;4917030;29;20481;-62
2022/03/12 03:13:47;;;;;;;8.30;5.40;;;3.30;88.90;;;;;;4928997;29;21017;-62
2022/03/12 03:16:18;;;;;;;7.90;5.27;;;3.30;88.70;;;;;;4936207;29;20474;-62
2022/03/12 03:18:51;;;;;;;9.97;5.60;;;3.20;89.00;;;;;;4917397;29;20488;-62
2022/03/12 03:21:20;;;;;;;8.63;6.40;;;3.30;89.30;;;;;;4917251;29;20488;-62
2022/03/12 03:23:48;;;;;;;9.60;5.00;;;3.20;89.40;;;;;;4917177;29;20480;-62
2022/03/12 03:26:24;;;;;;;9.13;5.83;;;3.20;89.80;;;;;;4917483;29;20567;-62
2022/03/12 03:28:52;;;;;;;8.57;5.47;;;3.20;89.90;;;;;;4916965;29;20543;-62
2022/03/12 03:31:21;;;;;;;8.10;5.33;;;3.20;89.90;;;;;;4917083;29;20465;-62
2022/03/12 03:33:49;;;;;;;8.33;5.43;;;3.20;89.80;;;;;;4917080;29;20464;-62
2022/03/12 03:36:18;;;;;;;7.43;5.17;;;3.20;89.80;;;;;;4917186;29;20522;-62
2022/03/12 03:38:46;;;;;;;8.67;5.50;;;3.20;89.70;;;;;;4929994;29;20475;-62
2022/03/12 03:41:15;;;;;;;8.77;5.23;;;3.20;89.80;;;;;;4920132;29;20476;-62
2022/03/12 03:43:47;;;;;;;9.63;5.30;;;3.10;89.40;;;;;;4917482;29;20479;-62
2022/03/12 03:46:20;;;;;;;9.83;5.53;;;3.10;90.60;;;;;;4916845;29;20896;-62
2022/03/12 03:48:51;;;;;;;7.83;5.47;;;3.10;90.20;;;;;;4929951;29;20483;-62
2022/03/12 03:51:20;;;;;;;8.47;5.73;;;3.10;90.30;;;;;;4936047;29;21311;-62
2022/03/12 03:53:49;;;;;;;7.83;5.10;;;3.10;89.60;;;;;;4922545;29;20489;-63
2022/03/12 03:56:18;;;;;;;7.40;5.43;;;3.10;89.80;;;;;;4916929;29;20571;-62
2022/03/12 03:58:48;;;;;;;7.07;5.40;;;3.10;89.60;;;;;;4929851;29;20498;-62
2022/03/12 04:01:18;;;;;;;9.07;5.60;;;3.00;89.30;;;;;;4935693;29;20503;-62
2022/03/12 04:03:48;;;;;;;10.10;5.37;;;3.00;89.20;;;;;;4922503;29;20983;-62
2022/03/12 04:06:18;;;;;;;8.67;5.80;;;2.90;89.20;;;;;;4916593;29;20476;-62
2022/03/12 04:08:48;;;;;;;8.73;5.13;;;3.00;89.60;;;;;;4916302;29;20472;-62
2022/03/12 04:11:18;;;;;;;7.93;5.47;;;3.00;89.40;;;;;;4916036;29;20483;-62
2022/03/12 04:13:48;;;;;;;8.10;5.40;;;2.90;89.30;;;;;;4928038;29;20537;-62
2022/03/12 04:16:18;;;;;;;8.93;5.40;;;2.90;89.70;;;;;;4935563;29;20482;-62
2022/03/12 04:18:48;;;;;;;10.10;5.50;;;2.90;89.50;;;;;;4922031;29;20553;-62
2022/03/12 04:21:17;;;;;;;8.50;5.63;;;2.90;89.90;;;;;;4915466;29;20490;-62
2022/03/12 04:23:46;;;;;;;7.87;5.47;;;3.00;89.20;;;;;;4928960;29;20499;-62
2022/03/12 04:26:15;;;;;;;8.77;5.60;;;2.90;89.40;;;;;;4935323;29;20479;-62
2022/03/12 04:28:44;;;;;;;8.93;5.67;;;2.90;89.90;;;;;;4935110;29;20561;-62
2022/03/12 04:31:14;;;;;;;10.00;5.30;;;2.80;90.30;;;;;;4935076;29;20487;-62
2022/03/12 04:33:42;;;;;;;10.07;5.80;;;2.80;89.80;;;;;;4922519;29;21007;-62
2022/03/12 04:36:12;;;;;;;7.93;5.13;;;2.80;90.40;;;;;;4915933;29;20511;-62
2022/03/12 04:38:41;;;;;;;10.37;6.20;;;2.80;89.70;;;;;;4928217;29;20476;-62
2022/03/12 04:41:12;;;;;;;8.97;5.43;;;2.80;89.70;;;;;;4920153;29;20263;-62
2022/03/12 04:43:42;;;;;;;9.83;5.63;;;2.80;90.90;;;;;;4909846;29;20477;-62
2022/03/12 04:46:10;;;;;;;10.77;5.37;;;2.80;90.20;;;;;;4915899;29;20483;-62
2022/03/12 04:48:40;;;;;;;9.23;5.17;;;2.70;90.20;;;;;;4927580;29;20471;-62
2022/03/12 04:51:08;;;;;;;6.93;5.30;;;2.70;90.20;;;;;;4934806;29;20851;-62
2022/03/12 04:53:38;;;;;;;8.70;5.27;;;2.70;90.00;;;;;;4922725;29;21033;-62
2022/03/12 04:56:07;;;;;;;7.30;5.00;;;2.70;90.00;;;;;;4915822;29;20538;-62
2022/03/12 04:58:35;;;;;;;9.90;5.67;;;2.70;90.30;;;;;;4927086;29;20583;-62
2022/03/12 05:01:04;;;;;;;13.23;5.87;;;2.60;89.90;;;;;;4934535;29;20482;-62
2022/03/12 05:03:33;;;;;;;7.43;5.10;;;2.60;89.90;;;;;;4934347;29;21003;-62
2022/03/12 05:06:03;;;;;;;8.43;5.20;;;2.60;89.90;;;;;;4934546;29;20537;-62
2022/03/12 05:08:35;;;;;;;9.33;5.33;;;2.60;90.10;;;;;;4923057;29;20493;-62
2022/03/12 05:11:04;;;;;;;10.27;5.67;;;2.60;90.00;;;;;;4914988;29;20909;-62
2022/03/12 05:13:34;;;;;;;8.13;5.70;;;2.60;90.10;;;;;;4925107;29;21076;-62
2022/03/12 05:16:05;;;;;;;8.27;5.37;;;2.60;90.10;;;;;;4934432;29;20506;-62
2022/03/12 05:18:36;;;;;;;9.10;5.83;;;2.60;89.90;;;;;;4933977;29;20524;-62
2022/03/12 05:21:07;;;;;;;6.93;4.80;;;2.50;89.70;;;;;;4934213;29;20531;-62
2022/03/12 05:23:35;;;;;;;11.17;5.93;;;2.60;89.90;;;;;;4933823;29;20562;-62
2022/03/12 05:26:05;;;;;;;7.50;5.30;;;2.50;90.00;;;;;;4934253;29;20471;-62
2022/03/12 05:28:34;;;;;;;7.47;5.40;;;2.50;90.20;;;;;;4933940;29;20487;-62
2022/03/12 05:31:04;;;;;;;8.63;5.60;;;2.50;90.30;;;;;;4934074;29;20841;-62
2022/03/12 05:33:34;;;;;;;7.93;5.60;;;2.40;90.40;;;;;;4922747;29;20482;-62
2022/03/12 05:36:05;;;;;;;9.43;5.20;;;2.40;90.40;;;;;;4915073;29;20482;-62
2022/03/12 05:38:34;;;;;;;8.40;5.60;;;2.40;90.90;;;;;;4915100;29;20899;-62
2022/03/12 05:41:05;;;;;;;8.70;5.80;;;2.40;90.30;;;;;;4914360;29;20491;-62
2022/03/12 05:43:34;;;;;;;9.43;5.60;;;2.40;90.50;;;;;;4914793;29;20568;-62
2022/03/12 05:46:02;;;;;;;9.30;5.93;;;2.40;90.60;;;;;;4914678;29;20539;-62
2022/03/12 05:48:32;;;;;;;8.33;5.00;;;2.40;90.80;;;;;;4914729;29;20563;-62
2022/03/12 05:51:00;;;;;;;9.07;5.60;;;2.40;91.20;;;;;;4914994;29;20471;-62
2022/03/12 05:53:35;;;;;;;7.57;5.33;;;2.30;90.80;;;;;;4915066;29;20475;-62
2022/03/12 05:56:03;;;;;;;6.87;5.23;;;2.40;90.40;;;;;;4914530;29;20482;-62
2022/03/12 05:58:35;;;;;;;6.50;5.40;;;2.40;90.60;;;;;;4925608;29;20470;-62
2022/03/12 06:01:03;;;;;;;7.53;5.70;;;2.40;90.40;;;;;;4933479;29;20483;-63
2022/03/12 06:03:32;;;;;;;9.60;5.63;;;2.40;90.30;;;;;;4933484;29;20484;-62
2022/03/12 06:06:00;;;;;;;8.33;4.97;;;2.40;90.40;;;;;;4933675;29;20502;-62
2022/03/12 06:08:31;;;;;;;8.17;5.30;;;2.50;90.40;;;;;;4923085;29;20853;-62
2022/03/12 06:11:00;;;;;;;7.83;5.20;;;2.40;90.80;;;;;;4914355;29;21083;-62
2022/03/12 06:13:31;;;;;;;8.20;4.87;;;2.40;90.50;;;;;;4914065;29;20530;-62
2022/03/12 06:16:00;;;;;;;8.10;5.30;;;2.50;90.30;;;;;;4914831;29;20486;-62
2022/03/12 06:18:29;;;;;;;9.17;5.23;;;2.60;90.90;;;;;;4914766;29;20842;-62
2022/03/12 06:20:58;;;;;;;8.03;5.13;;;2.60;90.70;;;;;;4914709;29;20873;-62
2022/03/12 06:23:28;;;;;;;9.53;5.60;;;2.70;90.50;;;;;;4924611;29;20982;-62
2022/03/12 06:25:57;;;;;;;7.83;5.40;;;2.70;90.60;;;;;;4933439;29;20570;-62
2022/03/12 06:28:27;;;;;;;8.33;5.90;;;2.80;90.40;;;;;;4923299;29;20505;-62
2022/03/12 06:30:55;;;;;;;7.77;5.40;;;2.90;90.30;;;;;;4914561;29;20523;-62
2022/03/12 06:33:24;;;;;;;10.73;5.27;;;3.00;90.40;;;;;;4914953;29;20455;-62
2022/03/12 06:35:52;;;;;;;8.23;5.17;;;3.00;90.10;;;;;;4913695;29;20468;-62
2022/03/12 06:38:21;;;;;;;9.07;5.73;;;3.10;90.30;;;;;;4914174;29;20531;-62
2022/03/12 06:40:49;;;;;;;7.23;4.77;;;3.20;90.50;;;;;;4906037;29;20465;-62
2022/03/12 06:43:19;;;;;;;8.20;4.73;;;3.30;90.00;;;;;;4914168;29;20485;-62
2022/03/12 06:45:49;;;;;;;7.27;4.80;;;3.40;89.60;;;;;;4917620;29;20492;-62
2022/03/12 06:48:18;;;;;;;7.53;5.50;;;3.40;89.50;;;;;;4920789;29;20539;-62
2022/03/12 06:50:47;;;;;;;7.47;4.87;;;3.50;90.00;;;;;;4920225;29;20562;-62
2022/03/12 06:53:16;;;;;;;7.70;5.07;;;3.60;89.90;;;;;;4918222;29;20499;-62
2022/03/12 06:55:45;;;;;;;8.63;5.33;;;3.90;90.10;;;;;;4921417;29;20514;-62
2022/03/12 06:58:15;;;;;;;7.77;5.40;;;4.00;88.60;;;;;;4915116;29;20464;-62
2022/03/12 07:00:44;;;;;;;8.53;5.20;;;4.20;89.60;;;;;;4916018;29;20578;-62
2022/03/12 07:03:12;;;;;;;8.07;4.90;;;4.30;89.20;;;;;;4916320;29;20492;-62
2022/03/12 07:05:41;;;;;;;6.67;4.87;;;4.30;88.40;;;;;;4929450;29;20487;-62
2022/03/12 07:08:09;;;;;;;6.93;5.20;;;4.40;88.50;;;;;;4915771;29;20519;-62
2022/03/12 07:10:37;;;;;;;7.43;4.90;;;4.50;88.30;;;;;;4928647;29;20487;-62
2022/03/12 07:13:05;;;;;;;6.77;4.70;;;4.50;87.90;;;;;;4928336;29;20291;-62
2022/03/12 07:15:33;;;;;;;7.63;5.17;;;4.50;87.90;;;;;;4924971;29;20805;-62
2022/03/12 07:18:02;;;;;;;6.53;5.13;;;4.50;87.70;;;;;;4916812;29;20708;-62
2022/03/12 07:20:31;;;;;;;7.03;4.93;;;4.30;86.90;;;;;;4917135;29;20657;-62
2022/03/12 07:23:00;;;;;;;8.60;5.23;;;4.10;86.40;;;;;;4923786;29;20272;-62
2022/03/12 07:25:29;;;;;;;8.27;5.17;;;4.10;87.90;;;;;;4925189;29;20238;-62
2022/03/12 07:27:57;;;;;;;9.80;5.33;;;4.10;87.70;;;;;;4921291;29;20261;-62
2022/03/12 07:30:25;;;;;;;8.97;5.23;;;4.00;87.60;;;;;;4915244;29;20476;-62
2022/03/12 07:32:53;;;;;;;11.20;5.07;;;4.00;87.90;;;;;;4915578;29;20239;-62
2022/03/12 07:35:23;;;;;;;7.87;5.50;;;4.10;88.10;;;;;;4916539;29;20979;-62
2022/03/12 07:37:51;;;;;;;7.77;5.13;;;4.10;88.10;;;;;;4914020;29;20469;-62
2022/03/12 07:40:20;;;;;;;9.60;5.57;;;4.10;88.60;;;;;;4915697;29;22123;-62
2022/03/12 07:42:49;;;;;;;8.00;5.20;;;4.10;88.00;;;;;;4921572;29;20476;-62
2022/03/12 07:45:19;;;;;;;6.23;4.90;;;4.10;87.70;;;;;;4922043;29;21037;-62
2022/03/12 07:47:49;;;;;;;7.50;4.83;;;4.20;88.60;;;;;;4921320;29;20487;-62
2022/03/12 07:50:17;;;;;;;7.93;5.20;;;4.30;87.70;;;;;;4921125;29;20538;-62
2022/03/12 07:52:47;;;;;;;9.40;5.57;;;4.30;87.60;;;;;;4921683;29;20555;-62
2022/03/12 07:55:16;;;;;;;8.70;5.90;;;4.30;87.20;;;;;;4916000;29;20475;-62
2022/03/12 07:57:44;;;;;;;8.20;5.67;;;4.40;87.50;;;;;;4930137;29;20471;-62
2022/03/12 08:00:15;;;;;;;5.53;4.63;;;4.50;87.60;;;;;;4916158;29;20917;-62
2022/03/12 08:02:46;;;;;;;6.83;4.70;;;4.50;87.20;;;;;;4916228;29;20480;-62
2022/03/12 08:05:17;;;;;;;8.50;4.77;;;4.60;87.20;;;;;;4914644;29;20481;-62
2022/03/12 08:07:46;;;;;;;8.23;4.70;;;4.70;86.30;;;;;;4915854;29;20519;-61
2022/03/12 08:10:14;;;;;;;6.87;4.60;;;4.70;85.70;;;;;;4916067;29;20508;-62
2022/03/12 08:12:44;;;;;;;6.10;3.97;;;4.80;85.40;;;;;;4914553;29;20485;-62
2022/03/12 08:15:14;;;;;;;6.27;4.47;;;5.00;86.10;;;;;;4916134;29;20232;-62
2022/03/12 08:17:43;;;;;;;7.27;4.77;;;5.30;85.70;;;;;;4930373;29;20262;-62
2022/03/12 08:20:12;;;;;;;8.97;4.70;;;5.50;84.60;;;;;;4916341;29;20303;-62
2022/03/12 08:22:44;;;;;;;6.67;4.90;;;5.70;84.80;;;;;;4915772;29;20232;-62
2022/03/12 08:25:15;;;;;;;6.27;4.40;;;5.70;84.30;;;;;;4915873;29;20291;-62
2022/03/12 08:27:43;;;;;;;8.07;4.70;;;5.80;84.00;;;;;;4920025;29;20266;-61
2022/03/12 08:30:14;;;;;;;6.43;4.63;;;5.90;83.40;;;;;;4919449;29;20292;-61
2022/03/12 08:32:42;;;;;;;6.27;4.40;;;5.90;83.00;;;;;;4919283;29;20323;-61
2022/03/12 08:35:12;;;;;;;6.57;4.73;;;6.10;83.40;;;;;;4927052;29;20657;-61
2022/03/12 08:37:41;;;;;;;6.93;4.80;;;6.20;83.20;;;;;;4934237;29;20657;-61
2022/03/12 08:40:14;;;;;;;6.83;4.30;;;6.30;83.40;;;;;;4926836;29;20232;-61
2022/03/12 08:42:44;;;;;;;7.60;3.97;;;6.40;83.00;;;;;;4934074;29;20637;-61
2022/03/12 08:45:12;;;;;;;5.43;4.10;;;6.60;83.80;;;;;;4926941;29;20240;-61
2022/03/12 08:47:43;;;;;;;7.77;4.67;;;6.80;82.40;;;;;;4930303;29;20241;-61
2022/03/12 08:50:11;;;;;;;6.50;4.30;;;6.90;81.60;;;;;;4915623;29;20760;-61
2022/03/12 08:52:41;;;;;;;7.33;4.03;;;7.20;82.90;;;;;;4915332;29;20228;-61
2022/03/12 08:55:11;;;;;;;6.43;4.57;;;7.40;81.80;;;;;;4923353;29;20260;-61
2022/03/12 08:57:39;;;;;;;5.63;4.37;;;7.50;81.10;;;;;;4918950;29;20231;-61
2022/03/12 09:00:12;;;;;;;7.63;5.15;;;7.70;80.30;;;;;;4925504;29;20842;-63
2022/03/12 09:02:41;;;;;;;10.23;5.03;;;7.80;79.60;;;;;;4933685;29;20236;-67
2022/03/12 09:05:12;;;;;;;10.50;4.90;;;8.10;82.50;;;;;;4926446;29;20319;-63
2022/03/12 09:07:40;;;;;;;7.63;4.23;;;8.50;81.20;;;;;;4932910;29;20601;-63
2022/03/12 09:10:10;;;;;;;7.27;3.93;;;8.60;80.50;;;;;;4926197;29;20243;-63
2022/03/12 09:12:39;;;;;;;7.00;4.47;;;8.70;79.00;;;;;;4932881;29;20263;-61
2022/03/12 09:15:10;;;;;;;12.07;4.77;;;8.70;78.30;;;;;;4918694;29;20243;-62
2022/03/12 09:17:39;;;;;;;8.47;4.57;;;8.80;79.10;;;;;;4915136;29;20325;-60
2022/03/12 09:20:09;;;;;;;7.00;4.10;;;9.00;79.50;;;;;;4914776;29;20740;-59
2022/03/12 09:22:37;;;;;;;6.10;4.60;;;9.00;76.80;;;;;;4917859;29;20330;-59
2022/03/12 09:25:12;;;;;;;6.40;3.80;;;9.10;77.10;;;;;;4926122;29;20236;-59
2022/03/12 09:27:40;;;;;;;6.65;4.97;;;9.20;76.00;;;;;;4932334;29;20453;-59
2022/03/12 09:30:11;;;;;;;5.03;4.50;;;9.50;76.80;;;;;;4926030;29;20248;-59
2022/03/12 09:32:39;;;;;;;5.73;4.33;;;9.50;75.10;;;;;;4932857;29;20716;-59
2022/03/12 09:35:09;;;;;;;6.38;4.85;;;9.30;75.80;;;;;;4925659;29;20432;-58
2022/03/12 09:37:38;;;;;;;7.10;4.90;;;9.30;76.10;;;;;;4929540;29;20447;-58
2022/03/12 09:40:07;;;;;;;5.27;4.07;;;9.10;76.10;;;;;;4914715;29;20269;-59
2022/03/12 09:42:36;;;;;;;6.57;4.70;;;9.30;77.90;;;;;;4917953;29;20263;-60
2022/03/12 09:45:06;;;;;;;6.60;4.20;;;9.50;77.60;;;;;;4925825;29;20251;-60
2022/03/12 09:47:36;;;;;;;7.93;4.40;;;9.50;76.80;;;;;;4933024;29;20234;-64
2022/03/12 09:50:06;;;;;;;7.40;4.80;;;9.50;77.20;;;;;;4918669;29;20238;-60
2022/03/12 09:52:36;;;;;;;7.33;4.30;;;9.60;77.00;;;;;;4916932;29;20233;-60
2022/03/12 09:55:05;;;;;;;5.83;3.83;;;9.60;76.20;;;;;;4925630;29;20241;-61
2022/03/12 09:57:34;;;;;;;9.13;4.70;;;9.70;75.50;;;;;;4932883;29;20241;-61
2022/03/12 10:00:04;;;;;;;6.33;4.50;;;9.80;76.30;;;;;;4925590;29;20229;-62
2022/03/12 10:02:40;;;;;;;5.60;4.23;;;9.80;75.30;;;;;;4929442;29;20239;-62
2022/03/12 10:05:11;;;;;;;6.93;4.67;;;10.20;79.40;;;;;;4914585;29;20290;-63
2022/03/12 10:07:39;;;;;;;7.80;5.77;;;10.60;76.80;;;;;;4914296;29;20256;-62
2022/03/12 10:10:11;;;;;;;14.73;7.60;;;10.80;76.40;;;;;;4915628;29;20243;-61
2022/03/12 10:12:39;;;;;;;8.77;6.03;;;11.20;79.30;;;;;;4909679;29;20233;-64
2022/03/12 10:15:10;;;;;;;8.60;4.83;;;11.50;77.10;;;;;;4918222;29;20231;-63
2022/03/12 10:17:40;;;;;;;7.50;5.20;;;11.70;77.20;;;;;;4903013;29;20672;-62
2022/03/12 10:20:11;;;;;;;6.47;5.00;;;11.60;74.20;;;;;;4920745;29;20241;-63
2022/03/12 10:22:42;;;;;;;9.50;5.20;;;11.50;74.40;;;;;;4912862;29;20825;-60
2022/03/12 10:25:12;;;;;;;6.00;4.57;;;11.60;74.10;;;;;;4925988;29;20247;-61
2022/03/12 10:27:41;;;;;;;7.17;4.63;;;11.80;75.00;;;;;;4921861;29;20710;-61
2022/03/12 10:30:13;;;;;;;6.50;4.60;;;11.90;76.30;;;;;;4929262;29;20318;-61
2022/03/12 10:32:45;;;;;;;5.77;4.73;;;12.20;74.10;;;;;;4936007;29;20600;-60
2022/03/12 10:35:15;;;;;;;6.33;4.53;;;12.30;73.50;;;;;;4916019;29;20239;-61
2022/03/12 10:37:43;;;;;;;6.43;5.20;;;12.30;74.50;;;;;;4926020;29;20652;-61
2022/03/12 10:40:15;;;;;;;5.03;4.47;;;12.00;74.20;;;;;;4917809;29;20780;-60
2022/03/12 10:42:49;;;;;;;8.17;4.90;;;11.90;75.40;;;;;;4917691;29;20290;-61
2022/03/12 10:45:19;;;;;;;6.80;5.00;;;12.00;75.60;;;;;;4917730;29;20277;-61
2022/03/12 10:47:53;;;;;;;6.77;4.77;;;11.90;74.70;;;;;;4915886;29;20263;-61
2022/03/12 10:50:25;;;;;;;8.80;5.13;;;12.00;74.50;;;;;;4916634;29;20271;-61
2022/03/12 10:52:55;;;;;;;6.57;4.70;;;12.00;74.90;;;;;;4917340;29;20239;-60
2022/03/12 10:55:28;;;;;;;10.50;5.23;;;12.20;74.60;;;;;;4927457;29;20269;-61
2022/03/12 10:58:05;;;;;;;7.17;5.07;;;12.20;74.30;;;;;;4930355;29;20573;-61
2022/03/12 11:00:37;;;;;;;8.63;5.10;;;12.30;74.60;;;;;;4915922;29;20251;-60
2022/03/12 11:03:11;;;;;;;9.30;5.23;;;12.40;74.40;;;;;;4911104;29;20232;-61
2022/03/12 11:05:43;;;;;;;6.20;5.03;;;12.60;75.30;;;;;;4913153;29;20246;-60
2022/03/12 11:08:15;;;;;;;6.43;5.13;;;12.80;74.40;;;;;;4928384;29;20277;-61
2022/03/12 11:10:50;;;;;;;7.33;5.53;;;12.90;73.90;;;;;;4915601;29;20284;-60
2022/03/12 11:13:32;;;;;;;8.53;5.00;;;13.10;75.30;;;;;;4915575;29;20239;-60
2022/03/12 11:16:14;;;;;;;8.90;5.63;;;13.30;74.50;;;;;;4921960;29;20258;-61
2022/03/12 11:18:57;;;;;;;7.80;5.37;;;13.20;72.50;;;;;;4929778;29;20330;-59
2022/03/12 11:21:27;;;;;;;7.23;5.10;;;13.40;73.40;;;;;;4935575;29;20624;-60
2022/03/12 11:23:55;;;;;;;6.87;5.40;;;13.40;73.40;;;;;;4925581;29;20269;-60
2022/03/12 11:26:24;;;;;;;6.87;5.70;;;13.50;73.80;;;;;;4918847;29;20708;-60
2022/03/12 11:28:56;;;;;;;8.47;5.80;;;13.50;73.90;;;;;;4916443;29;20278;-60
2022/03/12 11:31:40;;;;;;;9.27;5.57;;;13.50;73.90;;;;;;4916602;29;20323;-61
2022/03/12 11:34:22;;;;;;;7.57;5.63;;;13.60;74.30;;;;;;4924034;29;20227;-60
2022/03/12 11:37:04;;;;;;;8.37;6.00;;;13.60;74.50;;;;;;4897922;29;20336;-60
2022/03/12 11:39:34;;;;;;;9.23;5.47;;;13.60;74.00;;;;;;4920442;29;20720;-60
2022/03/12 11:42:11;;;;;;;7.00;5.43;;;13.80;74.10;;;;;;4935708;29;20720;-60
2022/03/12 11:44:41;;;;;;;6.67;5.70;;;14.20;75.80;;;;;;4910492;29;20335;-60
2022/03/12 11:47:10;;;;;;;7.57;5.73;;;14.40;75.10;;;;;;4935344;29;20236;-58
2022/03/12 11:49:40;;;;;;;7.80;6.00;;;14.40;73.00;;;;;;4914527;29;20348;-58
2022/03/12 11:52:09;;;;;;;8.97;6.60;;;14.40;73.50;;;;;;4915933;29;20323;-58
2022/03/12 11:54:38;;;;;;;9.57;7.37;;;14.40;74.00;;;;;;4919374;29;20738;-57
2022/03/12 11:57:07;;;;;;;6.80;5.87;;;14.30;73.90;;;;;;4935715;29;20635;-58
2022/03/12 11:59:36;;;;;;;8.67;6.00;;;14.40;75.00;;;;;;4923961;29;20227;-58
2022/03/12 12:02:31;;;;;;;8.87;6.20;;;14.40;75.60;;;;;;4917307;29;20296;-57
2022/03/12 12:05:04;;;;;;;6.90;6.17;;;14.20;75.50;;;;;;4927611;29;20667;-58
2022/03/12 12:07:36;;;;;;;6.13;5.23;;;14.20;74.40;;;;;;4931970;29;20396;-58
2022/03/12 12:10:05;;;;;;;6.20;5.57;;;14.10;73.80;;;;;;4916757;29;20600;-58
2022/03/12 12:12:39;;;;;;;7.10;5.33;;;14.10;73.90;;;;;;4919102;29;20230;-58
2022/03/12 12:15:14;;;;;;;7.93;5.43;;;14.10;73.20;;;;;;4922593;29;20243;-57
2022/03/12 12:17:44;;;;;;;7.10;6.07;;;13.90;75.00;;;;;;4913061;29;20267;-57
2022/03/12 12:20:16;;;;;;;7.57;5.90;;;13.80;74.30;;;;;;4918857;29;20236;-58
2022/03/12 12:22:45;;;;;;;6.77;5.77;;;13.90;75.20;;;;;;4913739;29;20248;-57
2022/03/12 12:25:16;;;;;;;8.80;5.83;;;13.90;76.80;;;;;;4915821;29;20236;-58
2022/03/12 12:27:46;;;;;;;9.83;5.53;;;14.10;75.90;;;;;;4914143;29;20264;-57
2022/03/12 12:30:17;;;;;;;8.50;5.60;;;14.10;75.20;;;;;;4910647;29;20928;-58
2022/03/12 12:32:47;;;;;;;10.07;5.70;;;14.10;74.90;;;;;;4909440;29;20757;-57
2022/03/12 12:35:19;;;;;;;8.10;6.43;;;14.20;74.60;;;;;;4910122;29;20241;-58
2022/03/12 12:37:50;;;;;;;7.33;5.90;;;14.10;75.50;;;;;;4910418;29;20701;-58
2022/03/12 12:40:27;;;;;;;9.17;6.10;;;14.10;75.80;;;;;;4911265;29;20295;-57
2022/03/12 12:42:57;;;;;;;9.80;6.60;;;14.10;74.50;;;;;;4908802;29;20267;-58
2022/03/12 12:45:28;;;;;;;8.00;6.20;;;13.90;76.00;;;;;;4909960;29;20272;-58
2022/03/12 12:48:10;;;;;;;6.70;5.47;;;14.00;76.40;;;;;;4909900;29;20246;-58
2022/03/12 12:50:40;;;;;;;7.33;6.47;;;14.00;75.40;;;;;;4910195;29;20264;-58
2022/03/12 12:53:14;;;;;;;8.73;6.50;;;14.10;75.20;;;;;;4909377;29;20244;-58
2022/03/12 12:55:44;;;;;;;9.83;5.90;;;13.90;74.50;;;;;;4910491;29;20315;-57
2022/03/12 12:58:13;;;;;;;6.23;5.40;;;14.00;74.80;;;;;;4909838;29;20242;-58
2022/03/12 13:00:46;;;;;;;7.77;5.87;;;13.70;75.90;;;;;;4909676;29;20304;-58
2022/03/12 13:03:22;;;;;;;6.60;5.67;;;13.70;75.10;;;;;;4908299;29;20232;-58
2022/03/12 13:05:57;;;;;;;11.27;6.17;;;13.60;75.10;;;;;;4909376;29;20258;-57
2022/03/12 13:08:42;;;;;;;6.97;5.47;;;13.80;75.20;;;;;;4910309;29;20664;-58